Time;durP1;ratioP1;P1;durP2;ratioP2;P2;SDS_P1;SDS_P2;PMS_P1;PMS_P2;Temp;Humidity;BMP_temperature;BMP_pressure;BME280_temperature;BME280_humidity;BME280_pressure;Samples;Min_cycle;Max_cycle;Signal;HPM_P1;HPM_P2
2021/03/08 00:03:29;;;;;;;27.77;15.32;;;2.60;99.90;;;;;;8364608;28;20033;-72
2021/03/08 00:07:30;;;;;;;27.60;15.70;;;2.50;99.90;;;;;;8362031;28;20402;-72
2021/03/08 00:11:30;;;;;;;26.02;14.35;;;2.30;99.90;;;;;;8363365;28;20506;-72
2021/03/08 00:15:31;;;;;;;26.63;13.52;;;2.50;99.90;;;;;;8364950;28;20136;-72
2021/03/08 00:19:33;;;;;;;25.25;13.93;;;2.60;99.90;;;;;;8364702;28;20028;-72
2021/03/08 00:23:34;;;;;;;24.00;13.38;;;2.20;99.90;;;;;;8364641;28;20068;-72
2021/03/08 00:27:35;;;;;;;26.40;14.45;;;2.00;99.90;;;;;;8392116;28;20372;-72
2021/03/08 00:31:35;;;;;;;26.13;14.07;;;2.10;99.90;;;;;;8395371;28;20064;-72
2021/03/08 00:35:36;;;;;;;29.70;14.88;;;1.70;99.90;;;;;;8368772;28;20025;-72
2021/03/08 00:39:36;;;;;;;27.23;13.60;;;1.90;99.90;;;;;;8361705;28;20462;-72
2021/03/08 00:43:37;;;;;;;27.60;14.38;;;1.50;99.90;;;;;;8362552;28;20076;-72
2021/03/08 00:47:38;;;;;;;26.45;13.70;;;1.30;99.90;;;;;;8362867;28;20028;-73
2021/03/08 00:51:38;;;;;;;24.83;13.65;;;1.40;99.90;;;;;;8363503;28;20084;-71
2021/03/08 00:55:39;;;;;;;28.15;13.68;;;1.20;99.90;;;;;;8363613;28;20112;-73
2021/03/08 00:59:39;;;;;;;29.42;14.77;;;1.20;99.90;;;;;;8390843;28;20037;-72
2021/03/08 01:03:40;;;;;;;27.92;14.80;;;1.20;99.90;;;;;;8384397;28;20029;-70
2021/03/08 01:07:41;;;;;;;28.23;14.30;;;1.00;99.90;;;;;;8360622;28;20033;-70
2021/03/08 01:11:45;;;;;;;32.40;14.75;;;0.90;99.90;;;;;;8362216;28;20827;-71
2021/03/08 01:15:46;;;;;;;28.98;14.52;;;0.80;99.90;;;;;;8363068;28;20151;-71
2021/03/08 01:19:47;;;;;;;31.63;15.25;;;0.60;99.90;;;;;;8361546;28;20036;-70
2021/03/08 01:23:47;;;;;;;31.15;14.93;;;0.50;99.90;;;;;;8361572;28;20021;-70
2021/03/08 01:27:48;;;;;;;23.42;13.73;;;0.80;99.90;;;;;;8362734;28;20048;-71
2021/03/08 01:31:49;;;;;;;30.00;14.73;;;0.80;99.90;;;;;;8359674;28;20057;-70
2021/03/08 01:35:49;;;;;;;28.88;14.15;;;1.00;99.90;;;;;;8361437;28;20036;-71
2021/03/08 01:39:50;;;;;;;26.17;13.27;;;1.10;99.90;;;;;;8360289;28;20076;-70
2021/03/08 01:43:51;;;;;;;28.85;14.98;;;1.30;99.90;;;;;;8360773;28;20025;-71
2021/03/08 01:47:52;;;;;;;26.27;13.88;;;1.20;99.90;;;;;;8359388;28;20487;-70
2021/03/08 01:51:52;;;;;;;26.20;14.05;;;0.90;99.90;;;;;;8359492;28;20402;-71
2021/03/08 01:55:54;;;;;;;26.83;13.85;;;0.90;99.90;;;;;;8361706;28;20112;-71
2021/03/08 01:59:54;;;;;;;22.55;13.15;;;1.00;99.90;;;;;;8361493;28;20021;-71
2021/03/08 02:03:56;;;;;;;29.65;14.20;;;1.00;99.90;;;;;;8360271;28;20049;-71
2021/03/08 02:07:57;;;;;;;28.15;13.68;;;0.80;99.90;;;;;;8359104;28;20067;-70
2021/03/08 02:12:14;;;;;;;26.83;14.80;;;0.70;99.90;;;;;;8360338;28;20092;-71
2021/03/08 02:16:27;;;;;;;28.00;13.75;;;0.40;99.90;;;;;;8361835;28;20041;-69
2021/03/08 02:20:47;;;;;;;27.48;14.10;;;0.30;99.90;;;;;;8359844;28;20047;-70
2021/03/08 02:25:33;;;;;;;24.40;12.38;;;0.20;99.90;;;;;;8360756;28;20025;-70
2021/03/08 02:30:04;;;;;;;25.33;12.75;;;0.40;99.90;;;;;;8360712;28;20653;-71
2021/03/08 02:34:13;;;;;;;26.83;13.05;;;0.20;99.90;;;;;;8358381;28;20017;-73
2021/03/08 02:38:20;;;;;;;29.50;14.18;;;-0.10;99.90;;;;;;8357355;28;20426;-72
2021/03/08 02:42:25;;;;;;;28.23;14.20;;;-0.20;99.90;;;;;;8358409;28;20021;-72
2021/03/08 02:46:30;;;;;;;23.48;13.35;;;-0.10;99.90;;;;;;8359288;28;20394;-72
2021/03/08 02:50:34;;;;;;;26.60;14.35;;;0.10;99.90;;;;;;8360156;28;20028;-72
2021/03/08 02:54:37;;;;;;;25.50;13.55;;;0.30;99.90;;;;;;8409113;22;20069;-62
2021/03/08 02:58:40;;;;;;;29.60;13.98;;;0.10;99.90;;;;;;8358233;28;20025;-63
2021/03/08 03:02:42;;;;;;;25.17;13.13;;;-0.30;99.90;;;;;;8358711;28;20025;-63
2021/03/08 03:06:45;;;;;;;30.10;14.57;;;-0.10;99.90;;;;;;8357928;28;20329;-63
2021/03/08 03:10:46;;;;;;;30.95;14.27;;;0.10;99.90;;;;;;8358348;28;20078;-63
2021/03/08 03:14:48;;;;;;;30.27;13.85;;;0.10;99.90;;;;;;8341618;28;20031;-62
2021/03/08 03:18:54;;;;;;;27.45;12.85;;;-0.10;99.90;;;;;;8359406;28;20075;-62
2021/03/08 03:22:57;;;;;;;24.00;11.48;;;-0.60;99.90;;;;;;8359981;28;20053;-62
2021/03/08 03:27:00;;;;;;;24.30;12.20;;;-0.60;99.90;;;;;;8359436;28;20020;-63
2021/03/08 03:31:01;;;;;;;27.88;13.48;;;-0.80;99.90;;;;;;8360337;28;20028;-62
2021/03/08 03:35:03;;;;;;;25.52;12.90;;;-0.80;99.90;;;;;;8347604;28;20035;-63
2021/03/08 03:39:07;;;;;;;26.85;13.73;;;-0.90;99.90;;;;;;8346097;28;20513;-63
2021/03/08 03:43:07;;;;;;;26.65;13.68;;;-0.90;99.90;;;;;;8364727;28;20090;-62
2021/03/08 03:47:08;;;;;;;24.95;12.23;;;-0.90;99.90;;;;;;8365826;28;20095;-63
2021/03/08 03:51:09;;;;;;;26.25;13.27;;;-1.10;99.90;;;;;;8365292;28;20048;-63
2021/03/08 03:55:12;;;;;;;27.55;12.68;;;-1.20;99.90;;;;;;8365340;28;20032;-63
2021/03/08 03:59:25;;;;;;;27.05;13.05;;;-1.60;99.90;;;;;;8347073;28;20307;-63
2021/03/08 04:03:51;;;;;;;26.75;12.48;;;-1.30;99.90;;;;;;8346653;28;20021;-62
2021/03/08 04:07:54;;;;;;;28.10;13.57;;;-1.20;99.90;;;;;;8335470;28;20037;-63
2021/03/08 04:11:59;;;;;;;28.75;13.23;;;-1.60;99.90;;;;;;8362891;28;20043;-63
2021/03/08 04:16:00;;;;;;;26.42;13.23;;;-1.60;99.90;;;;;;8364818;28;20029;-63
2021/03/08 04:20:03;;;;;;;26.65;13.73;;;-1.70;99.90;;;;;;8364448;28;20394;-63
2021/03/08 04:24:04;;;;;;;27.67;13.20;;;-1.70;99.90;;;;;;8365029;28;20028;-63
2021/03/08 04:28:05;;;;;;;27.02;13.52;;;-1.70;99.90;;;;;;8363542;28;20033;-63
2021/03/08 04:32:07;;;;;;;27.73;13.70;;;-1.50;99.90;;;;;;8363041;28;20035;-63
2021/03/08 04:36:09;;;;;;;28.48;13.95;;;-1.30;99.90;;;;;;8363253;28;20375;-63
2021/03/08 04:40:13;;;;;;;27.80;13.18;;;-1.40;99.90;;;;;;8358845;28;20124;-62
2021/03/08 04:44:13;;;;;;;26.17;12.68;;;-1.60;99.90;;;;;;8360097;28;20048;-63
2021/03/08 04:48:15;;;;;;;27.52;13.93;;;-1.80;99.90;;;;;;8343983;28;20197;-63
2021/03/08 04:52:18;;;;;;;35.83;14.80;;;-1.90;99.90;;;;;;8360432;28;20057;-63
2021/03/08 04:56:19;;;;;;;29.25;13.60;;;-1.90;99.90;;;;;;8362531;28;20357;-63
2021/03/08 05:00:21;;;;;;;30.40;15.00;;;-2.00;99.90;;;;;;8362228;28;20033;-63
2021/03/08 05:04:22;;;;;;;31.38;15.65;;;-1.90;99.90;;;;;;8361440;28;20044;-63
2021/03/08 05:08:25;;;;;;;32.20;15.02;;;-2.00;99.90;;;;;;8361556;28;20036;-63
2021/03/08 05:12:28;;;;;;;29.15;13.98;;;-2.20;99.90;;;;;;8341978;28;20075;-63
2021/03/08 05:16:30;;;;;;;33.33;14.52;;;-2.20;99.90;;;;;;8359848;28;20051;-63
2021/03/08 05:20:32;;;;;;;30.17;14.07;;;-2.20;99.90;;;;;;8359897;28;20564;-63
2021/03/08 05:24:33;;;;;;;27.02;13.13;;;-2.20;99.90;;;;;;8358440;28;20021;-63
2021/03/08 05:28:34;;;;;;;35.10;13.35;;;-2.30;99.90;;;;;;8361138;28;20029;-63
2021/03/08 05:32:46;;;;;;;29.88;13.52;;;-2.40;99.90;;;;;;8346109;28;20021;-63
2021/03/08 05:36:49;;;;;;;29.00;13.85;;;-2.10;99.90;;;;;;8358968;28;20391;-63
2021/03/08 05:41:01;;;;;;;24.17;12.70;;;-1.90;99.90;;;;;;8356574;28;20029;-63
2021/03/08 05:45:09;;;;;;;26.88;13.82;;;-2.00;99.90;;;;;;8356623;28;20135;-62
2021/03/08 05:49:30;;;;;;;27.55;12.93;;;-2.10;99.90;;;;;;8356591;28;20491;-63
2021/03/08 05:53:50;;;;;;;27.70;13.43;;;-2.30;99.90;;;;;;8342311;28;20033;-63
2021/03/08 05:58:06;;;;;;;27.95;13.65;;;-2.40;99.90;;;;;;8358922;28;20025;-63
2021/03/08 06:02:28;;;;;;;27.77;13.23;;;-2.30;99.90;;;;;;8357197;28;20036;-63
2021/03/08 06:07:17;;;;;;;28.98;13.60;;;-2.00;99.90;;;;;;8334627;28;20021;-63
2021/03/08 06:11:19;;;;;;;28.15;13.75;;;-2.00;99.90;;;;;;8292337;28;20090;-63
2021/03/08 06:15:22;;;;;;;26.42;12.05;;;-1.60;99.90;;;;;;8341687;28;20021;-63
2021/03/08 06:19:23;;;;;;;29.00;13.60;;;-0.80;99.90;;;;;;8355919;28;20027;-63
2021/03/08 06:23:26;;;;;;;29.88;14.55;;;-0.30;99.90;;;;;;8342873;28;20029;-63
2021/03/08 06:27:27;;;;;;;28.48;13.52;;;0.10;99.90;;;;;;8358026;28;20020;-63
2021/03/08 06:31:27;;;;;;;26.42;12.38;;;-0.20;99.90;;;;;;8338462;28;20028;-66
2021/03/08 06:35:28;;;;;;;25.02;12.20;;;-0.40;99.90;;;;;;8358935;28;20056;-64
2021/03/08 06:39:34;;;;;;;23.27;12.55;;;-0.60;99.90;;;;;;8358784;28;20025;-64
2021/03/08 06:43:36;;;;;;;23.25;11.43;;;-0.70;99.90;;;;;;8357544;28;20569;-64
2021/03/08 06:47:37;;;;;;;22.58;11.98;;;-1.00;99.90;;;;;;8348579;28;20049;-64
2021/03/08 06:52:03;;;;;;;23.65;12.00;;;-0.90;99.90;;;;;;8335916;28;20346;-63
2021/03/08 06:56:14;;;;;;;26.27;13.07;;;-0.90;99.90;;;;;;8351666;28;20021;-63
2021/03/08 07:00:15;;;;;;;30.92;14.85;;;-0.70;99.90;;;;;;8356962;28;20025;-63
2021/03/08 07:04:19;;;;;;;25.25;12.98;;;-0.50;99.90;;;;;;8345737;28;20075;-63
2021/03/08 07:08:23;;;;;;;22.42;12.35;;;-0.30;99.90;;;;;;8347906;28;20395;-63
2021/03/08 07:12:24;;;;;;;24.45;12.27;;;-0.20;99.90;;;;;;8356710;28;20116;-63
2021/03/08 07:16:36;;;;;;;24.33;13.05;;;0.20;99.90;;;;;;8340456;28;20029;-63
2021/03/08 07:20:36;;;;;;;25.52;13.93;;;0.20;99.90;;;;;;8357887;28;20025;-63
2021/03/08 07:24:56;;;;;;;26.13;13.73;;;0.40;99.90;;;;;;8355644;28;20029;-63
2021/03/08 07:29:10;;;;;;;22.40;13.25;;;0.50;99.90;;;;;;8339607;28;20059;-63
2021/03/08 07:33:16;;;;;;;24.25;13.52;;;0.70;99.90;;;;;;8358390;28;20094;-63
2021/03/08 07:37:17;;;;;;;25.60;13.82;;;0.90;99.90;;;;;;8356948;28;20382;-64
2021/03/08 07:41:19;;;;;;;27.13;15.13;;;1.10;99.90;;;;;;8357258;28;20057;-64
2021/03/08 07:45:23;;;;;;;23.65;13.60;;;1.20;99.90;;;;;;8348790;28;20021;-64
2021/03/08 07:49:37;;;;;;;23.38;13.50;;;1.40;99.90;;;;;;8353559;28;20032;-64
2021/03/08 07:53:37;;;;;;;20.17;12.30;;;1.80;99.90;;;;;;8352878;28;20542;-63
2021/03/08 07:57:39;;;;;;;19.52;11.23;;;2.00;99.90;;;;;;8350669;28;20029;-63
2021/03/08 08:01:39;;;;;;;22.42;12.75;;;2.20;99.90;;;;;;8352922;28;20088;-63
2021/03/08 08:05:40;;;;;;;19.52;12.00;;;2.40;99.90;;;;;;8357085;28;20021;-63
2021/03/08 08:09:42;;;;;;;18.77;11.45;;;2.70;99.90;;;;;;8355909;28;20112;-63
2021/03/08 08:13:46;;;;;;;19.02;11.10;;;2.90;99.90;;;;;;8356521;28;20495;-63
2021/03/08 08:17:50;;;;;;;17.35;10.80;;;3.10;99.90;;;;;;8356292;28;20044;-64
2021/03/08 08:21:55;;;;;;;17.10;10.45;;;3.30;99.90;;;;;;8360574;28;20451;-63
2021/03/08 08:25:55;;;;;;;21.92;11.45;;;3.50;99.90;;;;;;8361346;28;20383;-63
2021/03/08 08:30:00;;;;;;;17.67;9.85;;;3.60;99.90;;;;;;8358701;28;20067;-63
2021/03/08 08:34:34;;;;;;;12.43;8.77;;;3.80;99.90;;;;;;8360530;28;20115;-63
2021/03/08 08:38:35;;;;;;;11.80;8.13;;;4.00;99.90;;;;;;8359427;28;20028;-63
2021/03/08 08:42:37;;;;;;;14.05;8.23;;;4.20;99.90;;;;;;8360667;28;20021;-63
2021/03/08 08:46:42;;;;;;;11.85;7.82;;;4.50;99.90;;;;;;8342372;28;20472;-64
2021/03/08 08:50:49;;;;;;;12.70;7.97;;;4.70;99.90;;;;;;8342368;28;20116;-63
2021/03/08 08:54:50;;;;;;;14.27;7.80;;;4.70;99.90;;;;;;8361166;28;20041;-63
2021/03/08 08:58:52;;;;;;;14.20;8.18;;;4.90;99.90;;;;;;8358419;28;20033;-63
2021/03/08 09:02:53;;;;;;;11.30;7.00;;;5.10;99.90;;;;;;8353816;28;20414;-63
2021/03/08 09:07:02;;;;;;;12.73;8.05;;;5.30;99.90;;;;;;8361076;28;20017;-63
2021/03/08 09:11:03;;;;;;;12.98;7.40;;;5.50;99.90;;;;;;8361018;28;20013;-63
2021/03/08 09:15:09;;;;;;;13.35;8.07;;;5.70;99.90;;;;;;8359099;28;20036;-63
2021/03/08 09:19:22;;;;;;;11.65;7.50;;;5.80;99.90;;;;;;8360080;28;20032;-63
2021/03/08 09:23:24;;;;;;;11.35;7.90;;;6.00;99.90;;;;;;8358466;28;20311;-64
2021/03/08 09:27:33;;;;;;;10.52;7.47;;;6.00;99.90;;;;;;8360107;28;20025;-64
2021/03/08 09:31:35;;;;;;;10.63;7.50;;;6.20;99.90;;;;;;8358104;28;20037;-64
2021/03/08 09:35:43;;;;;;;9.68;6.90;;;6.40;99.90;;;;;;8343784;28;20441;-64
2021/03/08 09:39:50;;;;;;;10.02;7.07;;;6.50;99.90;;;;;;8360187;28;20437;-64
2021/03/08 09:43:57;;;;;;;17.73;9.02;;;6.60;99.90;;;;;;8357946;28;20020;-63
2021/03/08 09:48:01;;;;;;;15.75;9.48;;;6.80;99.90;;;;;;8342494;28;20090;-64
2021/03/08 09:52:02;;;;;;;14.10;7.30;;;6.80;99.90;;;;;;8341820;28;20033;-63
2021/03/08 09:56:05;;;;;;;14.65;8.27;;;6.70;99.90;;;;;;8359697;28;20100;-63
2021/03/08 10:00:06;;;;;;;14.70;7.95;;;6.60;99.60;;;;;;8359579;28;20479;-64
2021/03/08 10:04:06;;;;;;;11.68;7.38;;;6.60;99.90;;;;;;8357537;28;20025;-64
2021/03/08 10:08:09;;;;;;;11.27;7.22;;;6.90;98.70;;;;;;8359204;28;20387;-64
2021/03/08 10:12:11;;;;;;;12.75;8.80;;;7.10;99.70;;;;;;8355720;28;20041;-63
2021/03/08 10:16:20;;;;;;;11.80;7.60;;;7.30;99.20;;;;;;8340978;28;20029;-64
2021/03/08 10:20:21;;;;;;;9.88;7.22;;;7.70;97.80;;;;;;8358415;28;20055;-64
2021/03/08 10:24:35;;;;;;;11.27;7.30;;;7.80;96.20;;;;;;8357790;28;20029;-64
2021/03/08 10:28:45;;;;;;;10.50;7.35;;;7.90;94.70;;;;;;8338414;28;20021;-63
2021/03/08 10:32:46;;;;;;;;;;;8.00;95.80;;;;;;8333949;28;20036;-63
2021/03/08 10:36:48;;;;;;;11.98;7.80;;;8.20;92.30;;;;;;8353890;28;19913;-63
2021/03/08 10:40:52;;;;;;;8.23;4.53;;;8.20;94.90;;;;;;8357424;28;20565;-63
2021/03/08 10:44:54;;;;;;;12.07;8.63;;;8.30;90.60;;;;;;8358555;28;20139;-64
2021/03/08 10:48:59;;;;;;;11.27;7.63;;;7.70;91.30;;;;;;8354157;28;20035;-64
2021/03/08 10:53:04;;;;;;;12.68;7.60;;;7.70;91.20;;;;;;8349973;28;20029;-64
2021/03/08 10:57:05;;;;;;;10.10;6.65;;;7.90;90.80;;;;;;8356149;28;20028;-64
2021/03/08 11:01:08;;;;;;;10.13;6.63;;;9.00;98.20;;;;;;8333210;28;20057;-64
2021/03/08 11:05:12;;;;;;;;;;;12.90;94.70;;;;;;8347064;28;20032;-62
2021/03/08 11:09:13;;;;;;;;;;;16.90;72.50;;;;;;8354304;28;19999;-62
2021/03/08 11:13:13;;;;;;;;;;;19.10;52.60;;;;;;8350296;28;19916;-62
2021/03/08 11:17:14;;;;;;;;;;;20.80;49.10;;;;;;8340360;28;20302;-63
2021/03/08 11:21:20;;;;;;;;;;;22.70;45.50;;;;;;8357513;28;20382;-63
2021/03/08 11:25:47;;;;;;;;;;;23.10;36.90;;;;;;8340884;28;20268;-62
2021/03/08 11:30:07;;;;;;;;;;;22.20;40.90;;;;;;8354288;28;19915;-63
2021/03/08 11:34:08;;;;;;;;;;;23.30;35.90;;;;;;8351772;28;19909;-63
2021/03/08 11:38:12;;;;;;;;;;;24.40;39.60;;;;;;8357846;28;19967;-63
2021/03/08 11:42:13;;;;;;;;;;;24.50;32.70;;;;;;8337035;28;20547;-63
2021/03/08 11:46:13;;;;;;;;;;;24.70;32.70;;;;;;8357213;28;19913;-63
2021/03/08 11:50:14;;;;;;;;;;;26.70;30.80;;;;;;8339895;28;19916;-63
2021/03/08 11:54:14;;;;;;;;;;;26.40;30.00;;;;;;8363169;28;19916;-63
2021/03/08 11:58:18;;;;;;;14.30;12.83;;;26.90;29.80;;;;;;8363758;28;19909;-63
2021/03/08 12:02:19;;;;;;;132.48;125.25;;;27.70;29.20;;;;;;8362570;28;20480;-63
2021/03/08 12:06:19;;;;;;;106.78;100.82;;;27.90;27.70;;;;;;8362707;28;20053;-63
2021/03/08 12:10:20;;;;;;;104.88;99.07;;;28.40;28.40;;;;;;8362520;28;20401;-63
2021/03/08 12:14:21;;;;;;;97.82;92.43;;;28.40;27.10;;;;;;8360497;28;20033;-63
2021/03/08 12:18:21;;;;;;;95.10;89.75;;;27.80;27.20;;;;;;8362605;28;20025;-63
2021/03/08 12:22:22;;;;;;;95.78;90.60;;;27.20;28.70;;;;;;8361631;28;20021;-63
2021/03/08 12:26:23;;;;;;;95.45;90.03;;;28.00;28.20;;;;;;8361831;28;20036;-63
2021/03/08 12:30:24;;;;;;;101.25;95.68;;;27.50;27.10;;;;;;8360265;28;20648;-63
2021/03/08 12:34:25;;;;;;;101.75;96.15;;;28.00;27.20;;;;;;8344001;28;20025;-63
2021/03/08 12:38:26;;;;;;;97.30;91.80;;;29.30;26.30;;;;;;8361709;28;20052;-63
2021/03/08 12:42:26;;;;;;;88.03;83.15;;;28.80;24.60;;;;;;8361896;28;20036;-63
2021/03/08 12:46:27;;;;;;;84.07;79.53;;;27.20;25.80;;;;;;8357734;28;20637;-63
2021/03/08 12:50:27;;;;;;;80.72;76.13;;;25.30;27.30;;;;;;8358350;28;20384;-63
2021/03/08 12:54:28;;;;;;;83.05;78.53;;;26.20;28.20;;;;;;8355733;28;20033;-63
2021/03/08 12:58:28;;;;;;;86.90;82.10;;;27.90;26.80;;;;;;8362166;28;20033;-63
2021/03/08 13:02:29;;;;;;;83.95;79.38;;;26.60;27.20;;;;;;8361822;28;20037;-63
2021/03/08 13:06:29;;;;;;;88.68;83.40;;;27.70;27.10;;;;;;8343253;28;20434;-63
2021/03/08 13:10:31;;;;;;;84.45;79.65;;;28.40;26.50;;;;;;8360147;28;20039;-63
2021/03/08 13:14:31;;;;;;;85.18;80.43;;;30.20;24.20;;;;;;8360390;28;20025;-63
2021/03/08 13:18:33;;;;;;;65.13;61.45;;;29.60;23.90;;;;;;8339962;28;20043;-62
2021/03/08 13:22:33;;;;;;;73.68;69.55;;;26.80;27.70;;;;;;8358452;28;20040;-62
2021/03/08 13:26:34;;;;;;;75.25;71.07;;;28.90;25.30;;;;;;8360043;28;20021;-63
2021/03/08 13:30:35;;;;;;;45.25;42.83;;;30.00;24.10;;;;;;8360884;28;20033;-62
2021/03/08 13:34:35;;;;;;;59.15;55.92;;;26.30;25.90;;;;;;8360108;28;20035;-62
2021/03/08 13:38:36;;;;;;;71.85;67.95;;;25.00;27.00;;;;;;8359267;28;20029;-63
2021/03/08 13:42:36;;;;;;;69.93;65.95;;;27.00;27.30;;;;;;8359562;28;20021;-63
2021/03/08 13:46:37;;;;;;;59.20;56.03;;;27.00;26.50;;;;;;8360321;28;20074;-63
2021/03/08 13:50:38;;;;;;;78.32;73.93;;;28.60;25.30;;;;;;8357062;28;20032;-62
2021/03/08 13:54:39;;;;;;;64.97;61.45;;;27.90;25.80;;;;;;8361178;28;20450;-63
2021/03/08 13:58:39;;;;;;;91.80;86.75;;;29.10;25.80;;;;;;8356541;28;20048;-63
2021/03/08 14:02:40;;;;;;;84.72;79.93;;;29.50;24.00;;;;;;8354381;28;21089;-63
2021/03/08 14:06:40;;;;;;;87.47;82.50;;;27.80;26.30;;;;;;8338833;28;20040;-63
2021/03/08 14:10:41;;;;;;;80.25;75.45;;;28.80;25.30;;;;;;8354043;28;20367;-63
2021/03/08 14:14:43;;;;;;;77.63;73.13;;;28.90;26.10;;;;;;8353592;28;20547;-62
2021/03/08 14:18:43;;;;;;;80.28;75.35;;;26.10;27.10;;;;;;8354800;28;20029;-63
2021/03/08 14:22:49;;;;;;;68.50;64.80;;;27.20;26.60;;;;;;8349489;28;20108;-63
2021/03/08 14:26:49;;;;;;;47.47;44.95;;;27.10;26.60;;;;;;8338966;28;20029;-62
2021/03/08 14:30:50;;;;;;;61.83;58.53;;;20.80;33.70;;;;;;8358311;28;20033;-62
2021/03/08 14:34:51;;;;;;;32.03;30.17;;;17.90;37.50;;;;;;8358922;28;20399;-62
2021/03/08 14:38:51;;;;;;;11.70;8.60;;;17.60;40.30;;;;;;8358819;28;20033;-62
2021/03/08 14:42:52;;;;;;;10.02;7.70;;;16.50;40.70;;;;;;8358554;28;20021;-62
2021/03/08 14:46:52;;;;;;;9.63;7.60;;;16.00;42.00;;;;;;8358642;28;20033;-62
2021/03/08 14:50:53;;;;;;;10.70;8.32;;;15.90;43.60;;;;;;8358568;28;20091;-62
2021/03/08 14:54:53;;;;;;;9.85;8.40;;;15.40;45.10;;;;;;8355861;28;20036;-63
2021/03/08 14:58:54;;;;;;;11.18;8.77;;;15.10;45.80;;;;;;8358040;28;20117;-63
2021/03/08 15:02:55;;;;;;;12.52;8.65;;;14.70;45.80;;;;;;8340660;28;20498;-62
2021/03/08 15:06:56;;;;;;;11.70;9.00;;;14.50;47.70;;;;;;8358267;28;20079;-62
2021/03/08 15:10:57;;;;;;;12.05;8.68;;;14.20;47.30;;;;;;8358153;28;20491;-62
2021/03/08 15:14:58;;;;;;;12.02;9.13;;;13.90;46.90;;;;;;8355855;28;20037;-63
2021/03/08 15:18:59;;;;;;;12.02;8.88;;;13.70;49.20;;;;;;8355369;28;20048;-62
2021/03/08 15:23:00;;;;;;;10.40;7.85;;;13.70;49.30;;;;;;8348566;28;20060;-62
2021/03/08 15:27:00;;;;;;;11.10;8.65;;;13.70;49.70;;;;;;8346759;28;20499;-63
2021/03/08 15:31:01;;;;;;;10.80;8.77;;;13.40;49.70;;;;;;8356764;28;20035;-62
2021/03/08 15:35:02;;;;;;;10.80;8.52;;;13.10;49.80;;;;;;8359939;28;20025;-62
2021/03/08 15:39:03;;;;;;;11.45;8.40;;;12.80;51.30;;;;;;8362508;28;20053;-62
2021/03/08 15:43:03;;;;;;;15.15;8.57;;;12.10;51.70;;;;;;8360375;28;20417;-62
2021/03/08 15:47:04;;;;;;;11.45;8.20;;;11.90;52.30;;;;;;8352112;28;20383;-62
2021/03/08 15:51:05;;;;;;;11.15;8.32;;;11.70;53.10;;;;;;8359428;28;20116;-61
2021/03/08 15:55:06;;;;;;;9.93;7.95;;;11.40;53.50;;;;;;8362844;28;20033;-61
2021/03/08 15:59:07;;;;;;;11.40;7.85;;;11.10;55.00;;;;;;8359815;28;20098;-62
2021/03/08 16:03:07;;;;;;;11.02;8.02;;;10.90;54.50;;;;;;8342873;28;20017;-61
2021/03/08 16:07:08;;;;;;;10.07;7.50;;;10.70;55.30;;;;;;8362257;28;20505;-62
2021/03/08 16:11:08;;;;;;;12.60;8.52;;;10.30;56.40;;;;;;8362532;28;20033;-62
2021/03/08 16:15:10;;;;;;;11.55;7.65;;;10.10;57.40;;;;;;8361944;28;20075;-62
2021/03/08 16:19:10;;;;;;;10.43;7.95;;;10.00;57.00;;;;;;8362051;28;20048;-61
2021/03/08 16:23:11;;;;;;;11.18;7.65;;;9.80;57.60;;;;;;8359961;28;20024;-61
2021/03/08 16:27:11;;;;;;;13.52;7.75;;;9.80;58.20;;;;;;8361701;28;20083;-62
2021/03/08 16:31:12;;;;;;;14.52;7.47;;;9.60;58.70;;;;;;8338870;28;20588;-61
2021/03/08 16:35:13;;;;;;;11.20;7.95;;;9.50;58.30;;;;;;8359874;28;20086;-61
2021/03/08 16:39:15;;;;;;;11.13;8.00;;;9.20;58.40;;;;;;8347968;28;20395;-62
2021/03/08 16:43:15;;;;;;;11.98;8.00;;;8.80;59.50;;;;;;8362617;28;20471;-62
2021/03/08 16:47:16;;;;;;;11.43;7.32;;;8.40;61.00;;;;;;8361516;28;20068;-62
2021/03/08 16:51:17;;;;;;;12.65;7.97;;;7.90;63.20;;;;;;8344080;28;20108;-63
2021/03/08 16:55:20;;;;;;;10.68;8.00;;;7.40;64.80;;;;;;8354281;28;20037;-62
2021/03/08 16:59:20;;;;;;;10.10;7.55;;;7.00;66.20;;;;;;8340748;28;20090;-62
2021/03/08 17:03:21;;;;;;;11.18;7.32;;;6.60;67.70;;;;;;8334565;28;20064;-62
2021/03/08 17:07:22;;;;;;;10.93;7.70;;;6.20;68.50;;;;;;8347584;28;20021;-62
2021/03/08 17:11:22;;;;;;;11.68;7.10;;;5.90;69.60;;;;;;8336708;28;20037;-62
2021/03/08 17:15:23;;;;;;;10.38;7.20;;;5.50;71.20;;;;;;8346227;28;20543;-62
2021/03/08 17:19:23;;;;;;;11.45;7.13;;;5.10;73.00;;;;;;8342938;28;20064;-62
2021/03/08 17:23:24;;;;;;;11.73;6.93;;;4.90;74.10;;;;;;8324063;28;20024;-62
2021/03/08 17:27:26;;;;;;;10.65;7.35;;;4.60;75.00;;;;;;8323320;28;20032;-62
2021/03/08 17:31:26;;;;;;;11.70;7.85;;;4.40;75.80;;;;;;8324269;28;20395;-62
2021/03/08 17:35:28;;;;;;;10.30;6.85;;;4.20;76.80;;;;;;8325653;28;20057;-63
2021/03/08 17:39:29;;;;;;;10.02;6.80;;;3.70;79.20;;;;;;8325732;28;20032;-62
2021/03/08 17:43:29;;;;;;;10.48;6.95;;;3.60;79.90;;;;;;8331445;28;20080;-63
2021/03/08 17:47:30;;;;;;;10.32;6.65;;;3.40;81.80;;;;;;8332219;28;20033;-65
2021/03/08 17:51:30;;;;;;;11.05;6.88;;;3.30;83.20;;;;;;8342501;28;20107;-64
2021/03/08 17:55:31;;;;;;;12.52;6.70;;;3.10;84.70;;;;;;8334571;28;20022;-65
2021/03/08 17:59:31;;;;;;;12.95;6.63;;;3.10;87.20;;;;;;8330378;28;20449;-64
2021/03/08 18:03:32;;;;;;;12.75;6.65;;;3.00;87.70;;;;;;8328979;28;20032;-63
2021/03/08 18:07:33;;;;;;;11.18;6.90;;;2.90;88.60;;;;;;8338511;28;20121;-63
2021/03/08 18:11:35;;;;;;;11.65;6.95;;;2.80;89.20;;;;;;8326642;28;20394;-63
2021/03/08 18:15:35;;;;;;;12.63;6.55;;;2.60;90.10;;;;;;8316467;28;20049;-63
2021/03/08 18:19:36;;;;;;;10.00;6.45;;;2.40;91.00;;;;;;8339247;28;20017;-63
2021/03/08 18:23:36;;;;;;;11.88;7.07;;;2.40;90.90;;;;;;8332351;28;20029;-63
2021/03/08 18:27:37;;;;;;;10.55;6.20;;;2.40;91.00;;;;;;8353977;28;20033;-62
2021/03/08 18:31:37;;;;;;;13.05;6.43;;;2.40;90.90;;;;;;8352725;28;20060;-63
2021/03/08 18:35:39;;;;;;;10.80;6.22;;;2.40;90.90;;;;;;8353977;28;20135;-63
2021/03/08 18:39:39;;;;;;;12.25;5.95;;;2.40;90.50;;;;;;8336828;28;20036;-64
2021/03/08 18:43:40;;;;;;;12.43;6.75;;;2.20;91.10;;;;;;8353853;28;20041;-63
2021/03/08 18:47:41;;;;;;;10.32;6.05;;;2.00;91.80;;;;;;8350237;28;20120;-63
2021/03/08 18:51:42;;;;;;;8.77;5.97;;;1.90;92.30;;;;;;8350272;28;20039;-63
2021/03/08 18:55:43;;;;;;;12.85;6.20;;;1.70;94.00;;;;;;8335740;28;20033;-63
2021/03/08 18:59:45;;;;;;;10.82;6.45;;;1.90;92.80;;;;;;8334159;28;20036;-63
2021/03/08 19:03:45;;;;;;;10.82;6.38;;;1.70;93.70;;;;;;8354251;28;20025;-63
2021/03/08 19:07:46;;;;;;;11.68;6.00;;;1.60;93.80;;;;;;8352491;28;20090;-63
2021/03/08 19:11:46;;;;;;;10.38;6.03;;;1.50;94.90;;;;;;8334365;28;20033;-63
2021/03/08 19:15:47;;;;;;;9.98;6.03;;;1.60;93.40;;;;;;8353021;28;20041;-64
2021/03/08 19:19:47;;;;;;;9.65;5.93;;;1.60;93.40;;;;;;8353349;28;20078;-62
2021/03/08 19:23:48;;;;;;;9.85;6.10;;;1.40;94.40;;;;;;8349733;28;20032;-63
2021/03/08 19:27:49;;;;;;;11.27;6.55;;;1.20;95.10;;;;;;8349381;28;20010;-63
2021/03/08 19:31:49;;;;;;;11.32;5.95;;;1.10;96.70;;;;;;8352994;28;20041;-63
2021/03/08 19:35:50;;;;;;;11.63;6.25;;;1.00;97.40;;;;;;8336569;28;20032;-63
2021/03/08 19:39:50;;;;;;;11.57;6.05;;;0.90;97.40;;;;;;8353826;28;20029;-63
2021/03/08 19:43:51;;;;;;;14.23;6.13;;;0.80;98.40;;;;;;8337086;28;20018;-63
2021/03/08 19:47:52;;;;;;;9.63;5.72;;;1.20;97.30;;;;;;8354051;28;20025;-63
2021/03/08 19:51:52;;;;;;;9.15;5.78;;;1.40;95.90;;;;;;8339519;28;20495;-63
2021/03/08 19:55:53;;;;;;;11.13;5.80;;;1.10;97.00;;;;;;8352760;28;20084;-63
2021/03/08 19:59:54;;;;;;;9.20;5.60;;;0.90;98.60;;;;;;8349764;28;20514;-63
2021/03/08 20:03:54;;;;;;;8.40;5.25;;;1.10;97.70;;;;;;8333186;28;20025;-63
2021/03/08 20:07:55;;;;;;;9.93;5.45;;;0.90;98.50;;;;;;8330117;28;20079;-63
2021/03/08 20:11:56;;;;;;;9.90;6.03;;;0.80;98.60;;;;;;8345646;28;20067;-63
2021/03/08 20:15:56;;;;;;;11.15;6.78;;;0.80;99.90;;;;;;8341946;28;20021;-63
2021/03/08 20:19:58;;;;;;;12.60;6.50;;;0.40;99.90;;;;;;8334543;28;20495;-64
2021/03/08 20:23:59;;;;;;;17.75;7.07;;;0.30;99.90;;;;;;8307752;28;20424;-63
2021/03/08 20:27:59;;;;;;;10.95;6.53;;;0.20;99.90;;;;;;8340439;28;20079;-63
2021/03/08 20:32:00;;;;;;;14.25;7.00;;;0.30;99.90;;;;;;8331287;28;20028;-63
2021/03/08 20:36:02;;;;;;;12.02;6.43;;;0.10;99.90;;;;;;8358949;28;20098;-63
2021/03/08 20:40:05;;;;;;;12.35;6.63;;;0.00;99.90;;;;;;8345497;28;20061;-63
2021/03/08 20:44:07;;;;;;;9.25;5.65;;;-0.30;99.90;;;;;;8353650;28;20038;-63
2021/03/08 20:48:08;;;;;;;8.95;5.03;;;-0.30;99.90;;;;;;8353099;28;20029;-63
2021/03/08 20:52:08;;;;;;;8.18;5.07;;;0.00;99.90;;;;;;8355977;28;20075;-63
2021/03/08 20:56:09;;;;;;;9.00;5.28;;;-0.10;99.90;;;;;;8344961;28;20493;-63